createdAt,value
2019-04-28T00:00:21.464Z,0.00
2019-04-28T00:01:21.129Z,0.00
2019-04-28T00:02:22.422Z,0.00
2019-04-28T00:03:21.039Z,0.00
2019-04-28T00:04:21.492Z,0.00
2019-04-28T00:05:21.170Z,0.00
2019-04-28T00:06:21.199Z,0.00
2019-04-28T00:07:21.587Z,0.00
2019-04-28T00:08:20.978Z,0.00
2019-04-28T00:09:21.367Z,0.00
2019-04-28T00:10:21.034Z,0.00
2019-04-28T00:11:21.627Z,0.00
2019-04-28T00:12:22.797Z,0.00
2019-04-28T00:13:20.990Z,0.00
2019-04-28T00:14:21.889Z,0.00
2019-04-28T00:15:20.939Z,0.00
2019-04-28T00:16:22.849Z,0.00
2019-04-28T00:17:21.248Z,0.00
2019-04-28T00:18:21.941Z,0.00
2019-04-28T00:19:21.017Z,0.00
2019-04-28T00:20:21.402Z,0.00
2019-04-28T00:21:20.967Z,0.00
2019-04-28T00:22:20.980Z,0.00
2019-04-28T00:23:21.678Z,0.00
2019-04-28T00:24:21.071Z,0.00
2019-04-28T00:25:21.487Z,0.00
2019-04-28T00:26:21.204Z,0.00
2019-04-28T00:27:21.637Z,0.00
2019-04-28T00:28:33.489Z,0.00
2019-04-28T00:29:21.096Z,0.00
2019-04-28T00:30:21.744Z,0.00
2019-04-28T00:31:21.269Z,0.00
2019-04-28T00:32:21.079Z,0.00
2019-04-28T00:33:22.621Z,0.00
2019-04-28T00:34:21.229Z,0.00
2019-04-28T00:35:21.537Z,0.00
2019-04-28T00:36:21.588Z,0.00
2019-04-28T00:37:21.174Z,0.00
2019-04-28T00:38:21.563Z,0.00
2019-04-28T00:39:22.517Z,0.00
2019-04-28T00:40:21.752Z,0.00
2019-04-28T00:41:21.375Z,0.00
2019-04-28T00:42:22.633Z,0.00
2019-04-28T00:43:21.801Z,0.00
2019-04-28T00:44:21.804Z,0.00
2019-04-28T00:45:21.512Z,0.00
2019-04-28T00:46:21.126Z,0.00
2019-04-28T00:47:21.017Z,0.00
2019-04-28T00:48:21.001Z,0.00
2019-04-28T00:49:21.495Z,0.00
2019-04-28T00:50:21.728Z,0.00
2019-04-28T00:51:21.327Z,0.00
2019-04-28T00:52:22.159Z,0.00
2019-04-28T00:53:20.652Z,0.00
2019-04-28T00:54:21.849Z,0.00
2019-04-28T00:55:21.022Z,0.00
2019-04-28T00:56:21.812Z,0.00
2019-04-28T00:57:21.017Z,0.00
2019-04-28T00:58:20.935Z,0.00
2019-04-28T00:59:31.606Z,0.00
2019-04-28T01:00:21.518Z,0.00
2019-04-28T01:01:21.352Z,0.00
2019-04-28T01:02:21.170Z,0.00
2019-04-28T01:03:21.505Z,0.00
2019-04-28T01:04:21.904Z,0.00
2019-04-28T01:05:21.357Z,0.00
2019-04-28T01:06:22.255Z,0.00
2019-04-28T01:07:21.278Z,0.00
2019-04-28T01:08:20.946Z,0.00
2019-04-28T01:09:21.856Z,0.00
2019-04-28T01:10:21.035Z,0.00
2019-04-28T01:11:21.764Z,0.00
2019-04-28T01:12:21.233Z,0.00
2019-04-28T01:13:21.443Z,0.00
2019-04-28T01:14:21.317Z,0.00
2019-04-28T01:15:20.279Z,0.00
2019-04-28T01:16:20.287Z,0.00
2019-04-28T01:17:20.229Z,0.00
2019-04-28T01:18:21.810Z,0.00
2019-04-28T01:19:20.344Z,0.00
2019-04-28T01:20:20.204Z,0.00
2019-04-28T01:21:20.374Z,0.00
2019-04-28T01:22:20.284Z,0.00
2019-04-28T01:23:20.396Z,0.00
2019-04-28T01:24:20.173Z,0.00
2019-04-28T01:25:20.417Z,0.00
2019-04-28T01:26:20.154Z,0.00
2019-04-28T01:27:20.431Z,0.00
2019-04-28T01:28:21.337Z,0.00
2019-04-28T01:29:20.098Z,0.00
2019-04-28T01:30:32.109Z,0.00
2019-04-28T01:31:21.252Z,0.00
2019-04-28T01:32:20.436Z,0.00
2019-04-28T01:33:20.603Z,0.00
2019-04-28T01:34:20.536Z,0.00
2019-04-28T01:35:21.065Z,0.00
2019-04-28T01:36:20.343Z,0.00
2019-04-28T01:37:20.011Z,0.00
2019-04-28T01:38:20.446Z,0.00
2019-04-28T01:39:20.154Z,0.00
2019-04-28T01:40:20.633Z,0.00
2019-04-28T01:41:19.975Z,0.00
2019-04-28T01:42:20.445Z,0.00
2019-04-28T01:43:19.948Z,0.00
2019-04-28T01:44:19.991Z,0.00
2019-04-28T01:45:20.578Z,0.00
2019-04-28T01:46:19.975Z,0.00
2019-04-28T01:47:20.477Z,0.00
2019-04-28T01:48:20.011Z,0.00
2019-04-28T01:49:19.887Z,0.00
2019-04-28T01:50:20.454Z,0.00
2019-04-28T01:51:20.889Z,0.00
2019-04-28T01:52:20.346Z,0.00
2019-04-28T01:53:20.019Z,0.00
2019-04-28T01:54:20.045Z,0.00
2019-04-28T01:55:20.090Z,0.00
2019-04-28T01:56:20.459Z,0.00
2019-04-28T01:57:21.469Z,0.00
2019-04-28T01:58:20.473Z,0.00
2019-04-28T01:59:20.119Z,0.00
2019-04-28T02:00:24.966Z,0.00
2019-04-28T02:02:33.621Z,0.00
2019-04-28T02:03:33.569Z,0.00
2019-04-28T02:04:33.564Z,0.00
2019-04-28T02:05:33.547Z,0.00
2019-04-28T02:06:33.536Z,0.00
2019-04-28T02:07:33.533Z,4.00
2019-04-28T02:08:33.534Z,4.00
2019-04-28T02:09:33.504Z,4.00
2019-04-28T02:10:33.494Z,4.00
2019-04-28T02:11:33.482Z,4.00
2019-04-28T02:12:33.476Z,4.00
2019-04-28T02:13:33.467Z,4.00
2019-04-28T02:14:33.492Z,0.00
2019-04-28T02:15:33.444Z,0.00
2019-04-28T02:16:33.432Z,0.00
2019-04-28T02:17:33.419Z,4.00
2019-04-28T02:18:33.409Z,4.00
2019-04-28T02:19:33.399Z,4.00
2019-04-28T02:20:33.429Z,4.00
2019-04-28T02:21:33.377Z,4.00
2019-04-28T02:22:33.363Z,4.00
2019-04-28T02:23:33.358Z,4.00
2019-04-28T02:24:33.344Z,8.00
2019-04-28T02:25:33.337Z,4.00
2019-04-28T02:26:33.334Z,4.00
2019-04-28T02:27:33.313Z,4.00
2019-04-28T02:28:33.301Z,4.00
2019-04-28T02:29:33.295Z,4.00
2019-04-28T02:30:47.754Z,8.00
2019-04-28T02:31:34.345Z,8.00
2019-04-28T02:32:40.818Z,8.00
2019-04-28T02:33:33.244Z,4.00
2019-04-28T02:34:33.241Z,4.00
2019-04-28T02:35:34.244Z,4.00
2019-04-28T02:36:33.220Z,8.00
2019-04-28T02:37:33.242Z,8.00
2019-04-28T02:38:34.356Z,8.00
2019-04-28T02:39:33.181Z,8.00
2019-04-28T02:40:33.179Z,8.00
2019-04-28T02:41:33.851Z,8.00
2019-04-28T02:42:33.152Z,8.00
2019-04-28T02:43:33.176Z,8.00
2019-04-28T02:44:35.149Z,8.00
2019-04-28T02:45:33.122Z,8.00
2019-04-28T02:46:33.105Z,12.00
2019-04-28T02:47:34.164Z,12.00
2019-04-28T02:48:33.086Z,12.00
2019-04-28T02:49:33.106Z,8.00
2019-04-28T02:50:33.247Z,8.00
2019-04-28T02:51:33.055Z,12.00
2019-04-28T02:52:33.046Z,12.00
2019-04-28T02:53:33.685Z,12.00
2019-04-28T02:54:33.020Z,12.00
2019-04-28T02:55:33.050Z,12.00
2019-04-28T02:56:33.005Z,12.00
2019-04-28T02:57:32.990Z,12.00
2019-04-28T02:58:32.978Z,12.00
2019-04-28T02:59:32.969Z,16.00
2019-04-28T03:00:32.959Z,16.00
2019-04-28T03:01:32.996Z,12.00
2019-04-28T03:02:32.934Z,12.00
2019-04-28T03:03:45.102Z,16.00
2019-04-28T03:04:32.915Z,16.00
2019-04-28T03:05:33.520Z,16.00
2019-04-28T03:06:32.892Z,12.00
2019-04-28T03:07:32.920Z,16.00
2019-04-28T03:08:32.878Z,16.00
2019-04-28T03:09:32.864Z,16.00
2019-04-28T03:10:32.852Z,20.00
2019-04-28T03:11:32.836Z,16.00
2019-04-28T03:12:32.837Z,16.00
2019-04-28T03:13:32.850Z,16.00
2019-04-28T03:14:32.813Z,20.00
2019-04-28T03:15:32.796Z,20.00
2019-04-28T03:16:32.794Z,16.00
2019-04-28T03:17:32.781Z,20.00
2019-04-28T03:18:32.763Z,20.00
2019-04-28T03:19:34.082Z,20.00
2019-04-28T03:20:32.739Z,20.00
2019-04-28T03:21:32.740Z,20.00
2019-04-28T03:22:33.747Z,24.00
2019-04-28T03:23:32.708Z,20.00
2019-04-28T03:24:32.692Z,20.00
2019-04-28T03:25:33.574Z,24.00
2019-04-28T03:26:32.683Z,24.00
2019-04-28T03:27:32.665Z,24.00
2019-04-28T03:28:33.670Z,24.00
2019-04-28T03:29:32.638Z,24.00
2019-04-28T03:30:33.983Z,24.00
2019-04-28T03:32:00.909Z,24.00
2019-04-28T03:32:45.036Z,28.00
2019-04-28T03:33:41.494Z,24.00
2019-04-28T03:34:44.592Z,28.00
2019-04-28T03:35:32.989Z,24.00
2019-04-28T03:36:33.522Z,28.00
2019-04-28T03:37:32.557Z,28.00
2019-04-28T03:38:32.545Z,32.00
2019-04-28T03:39:32.536Z,28.00
2019-04-28T03:40:33.744Z,28.00
2019-04-28T03:41:32.516Z,32.00
2019-04-28T03:42:32.514Z,32.00
2019-04-28T03:43:32.491Z,28.00
2019-04-28T03:44:33.866Z,32.00
2019-04-28T03:45:32.466Z,32.00
2019-04-28T03:46:32.469Z,32.00
2019-04-28T03:47:32.492Z,32.00
2019-04-28T03:48:33.763Z,32.00
2019-04-28T03:49:32.468Z,32.00
2019-04-28T03:50:32.413Z,36.00
2019-04-28T03:51:32.403Z,36.00
2019-04-28T03:52:32.390Z,32.00
2019-04-28T03:53:32.413Z,32.00
2019-04-28T03:54:32.369Z,32.00
2019-04-28T03:55:34.924Z,36.00
2019-04-28T03:56:32.353Z,36.00
2019-04-28T03:57:32.340Z,36.00
2019-04-28T03:58:32.359Z,36.00
2019-04-28T03:59:32.323Z,36.00
2019-04-28T04:00:32.310Z,36.00
2019-04-28T04:01:32.295Z,36.00
2019-04-28T04:02:32.284Z,36.00
2019-04-28T04:03:32.276Z,40.00
2019-04-28T04:04:32.410Z,40.00
2019-04-28T04:05:42.913Z,36.00
2019-04-28T04:06:32.263Z,36.00
2019-04-28T04:07:32.234Z,40.00
2019-04-28T04:08:32.222Z,40.00
2019-04-28T04:09:32.210Z,40.00
2019-04-28T04:10:32.240Z,40.00
2019-04-28T04:11:32.196Z,40.00
2019-04-28T04:12:32.182Z,40.00
2019-04-28T04:13:33.060Z,44.00
2019-04-28T04:14:32.152Z,44.00
2019-04-28T04:15:32.143Z,40.00
2019-04-28T04:16:32.174Z,40.00
2019-04-28T04:17:33.640Z,40.00
2019-04-28T04:18:32.112Z,44.00
2019-04-28T04:19:32.106Z,44.00
2019-04-28T04:20:32.094Z,44.00
2019-04-28T04:21:32.083Z,44.00
2019-04-28T04:22:32.172Z,40.00
2019-04-28T04:23:32.056Z,44.00
2019-04-28T04:24:32.053Z,44.00
2019-04-28T04:25:32.037Z,44.00
2019-04-28T04:26:33.608Z,44.00
2019-04-28T04:27:32.017Z,48.00
2019-04-28T04:28:32.042Z,48.00
2019-04-28T04:29:31.990Z,48.00
2019-04-28T04:30:31.982Z,44.00
2019-04-28T04:31:32.153Z,44.00
2019-04-28T04:32:34.077Z,44.00
2019-04-28T04:33:31.955Z,48.00
2019-04-28T04:34:31.976Z,48.00
2019-04-28T04:35:31.931Z,48.00
2019-04-28T04:36:42.376Z,48.00
2019-04-28T04:37:31.911Z,48.00
2019-04-28T04:38:31.899Z,44.00
2019-04-28T04:39:31.883Z,48.00
2019-04-28T04:40:32.104Z,48.00
2019-04-28T04:41:31.861Z,48.00
2019-04-28T04:42:31.849Z,48.00
2019-04-28T04:43:31.845Z,52.00
2019-04-28T04:44:31.836Z,52.00
2019-04-28T04:45:31.835Z,48.00
2019-04-28T04:46:31.817Z,48.00
2019-04-28T04:47:32.933Z,52.00
2019-04-28T04:48:31.796Z,52.00
2019-04-28T04:49:31.818Z,52.00
2019-04-28T04:50:31.772Z,52.00
2019-04-28T04:51:31.793Z,52.00
2019-04-28T04:52:31.749Z,52.00
2019-04-28T04:53:31.740Z,52.00
2019-04-28T04:54:32.762Z,52.00
2019-04-28T04:55:31.714Z,52.00
2019-04-28T04:56:31.700Z,56.00
2019-04-28T04:57:32.663Z,52.00
2019-04-28T04:58:31.683Z,52.00
2019-04-28T04:59:31.667Z,56.00
2019-04-28T05:00:31.660Z,56.00
2019-04-28T05:01:31.655Z,56.00
2019-04-28T05:02:33.094Z,56.00
2019-04-28T05:03:31.638Z,56.00
2019-04-28T05:04:31.611Z,56.00
2019-04-28T05:05:31.611Z,56.00
2019-04-28T05:06:31.590Z,56.00
2019-04-28T05:07:41.946Z,56.00
2019-04-28T05:08:31.567Z,56.00
2019-04-28T05:09:31.592Z,56.00
2019-04-28T05:10:31.546Z,60.00
2019-04-28T05:11:31.537Z,60.00
2019-04-28T05:12:31.527Z,60.00
2019-04-28T05:13:31.518Z,56.00
2019-04-28T05:14:31.506Z,56.00
2019-04-28T05:15:31.510Z,60.00
2019-04-28T05:16:31.485Z,60.00
2019-04-28T05:17:31.472Z,60.00
2019-04-28T05:18:31.459Z,64.00
2019-04-28T05:19:32.432Z,64.00
2019-04-28T05:20:31.445Z,64.00
2019-04-28T05:21:33.492Z,60.00
2019-04-28T05:22:31.417Z,60.00
2019-04-28T05:23:31.422Z,60.00
2019-04-28T05:24:31.398Z,60.00
2019-04-28T05:25:32.609Z,64.00
2019-04-28T05:26:31.390Z,60.00
2019-04-28T05:27:32.538Z,64.00
2019-04-28T05:28:36.397Z,60.00
2019-04-28T05:29:32.340Z,64.00
2019-04-28T05:30:34.919Z,64.00
2019-04-28T05:31:32.362Z,64.00
2019-04-28T05:32:42.464Z,68.00
2019-04-28T05:33:34.030Z,64.00
2019-04-28T05:34:31.294Z,64.00
2019-04-28T05:35:31.279Z,64.00
2019-04-28T05:36:40.755Z,68.00
2019-04-28T05:37:32.292Z,68.00
2019-04-28T05:38:43.150Z,68.00
2019-04-28T05:39:31.233Z,68.00
2019-04-28T05:40:31.230Z,68.00
2019-04-28T05:41:31.216Z,72.00
2019-04-28T05:42:31.205Z,68.00
2019-04-28T05:43:31.233Z,68.00
2019-04-28T05:44:32.079Z,72.00
2019-04-28T05:45:32.225Z,72.00
2019-04-28T05:46:31.157Z,68.00
2019-04-28T05:47:31.146Z,72.00
2019-04-28T05:48:31.140Z,72.00
2019-04-28T05:49:31.150Z,76.00
2019-04-28T05:50:31.120Z,72.00
2019-04-28T05:51:31.106Z,76.00
2019-04-28T05:52:31.110Z,76.00
2019-04-28T05:53:31.080Z,76.00
2019-04-28T05:54:31.482Z,76.00
2019-04-28T05:55:31.077Z,76.00
2019-04-28T05:56:31.055Z,80.00
2019-04-28T05:57:31.037Z,76.00
2019-04-28T05:58:31.030Z,80.00
2019-04-28T05:59:31.017Z,80.00
2019-04-28T06:00:31.046Z,80.00
2019-04-28T06:01:30.994Z,80.00
2019-04-28T06:02:30.983Z,80.00
2019-04-28T06:03:30.973Z,84.00
2019-04-28T06:04:30.967Z,80.00
2019-04-28T06:05:31.967Z,84.00
2019-04-28T06:06:30.956Z,84.00
2019-04-28T06:07:30.933Z,88.00
2019-04-28T06:08:30.919Z,84.00
2019-04-28T06:09:41.002Z,88.00
2019-04-28T06:10:30.904Z,88.00
2019-04-28T06:11:30.912Z,88.00
2019-04-28T06:12:32.009Z,88.00
2019-04-28T06:13:30.870Z,92.00
2019-04-28T06:14:30.854Z,88.00
2019-04-28T06:15:30.849Z,88.00
2019-04-28T06:16:30.832Z,92.00
2019-04-28T06:17:30.841Z,92.00
2019-04-28T06:18:30.879Z,92.00
2019-04-28T06:19:30.800Z,92.00
2019-04-28T06:20:30.793Z,92.00
2019-04-28T06:21:30.786Z,92.00
2019-04-28T06:22:30.775Z,92.00
2019-04-28T06:23:30.801Z,96.00
2019-04-28T06:24:30.748Z,92.00
2019-04-28T06:25:30.780Z,96.00
2019-04-28T06:26:30.732Z,96.00
2019-04-28T06:27:32.628Z,96.00
2019-04-28T06:28:30.710Z,96.00
2019-04-28T06:29:30.781Z,96.00
2019-04-28T06:30:30.683Z,96.00
2019-04-28T06:31:30.675Z,96.00
2019-04-28T06:32:30.659Z,96.00
2019-04-28T06:33:30.653Z,100.00
2019-04-28T06:34:30.642Z,100.00
2019-04-28T06:35:30.668Z,100.00
2019-04-28T06:36:30.615Z,100.00
2019-04-28T06:37:30.643Z,100.00
2019-04-28T06:38:30.599Z,100.00
2019-04-28T06:39:30.589Z,100.00
2019-04-28T06:40:41.118Z,104.00
2019-04-28T06:41:30.566Z,100.00
2019-04-28T06:42:30.554Z,100.00
2019-04-28T06:43:30.547Z,100.00
2019-04-28T06:44:30.534Z,100.00
2019-04-28T06:45:30.538Z,100.00
2019-04-28T06:46:30.525Z,100.00
2019-04-28T06:47:30.501Z,100.00
2019-04-28T06:48:30.488Z,100.00
2019-04-28T06:49:30.475Z,96.00
2019-04-28T06:50:30.470Z,96.00
2019-04-28T06:51:30.490Z,96.00
2019-04-28T06:52:30.449Z,96.00
2019-04-28T06:53:30.441Z,96.00
2019-04-28T06:54:30.427Z,92.00
2019-04-28T06:55:30.415Z,92.00
2019-04-28T06:56:30.400Z,92.00
2019-04-28T06:57:30.428Z,92.00
2019-04-28T06:58:30.388Z,88.00
2019-04-28T06:59:30.370Z,92.00
2019-04-28T07:00:30.362Z,92.00
2019-04-28T07:01:30.348Z,92.00
2019-04-28T07:02:30.339Z,92.00
2019-04-28T07:03:30.343Z,92.00
2019-04-28T07:04:30.313Z,92.00
2019-04-28T07:05:30.312Z,96.00
2019-04-28T07:06:30.297Z,96.00
2019-04-28T07:07:30.281Z,100.00
2019-04-28T07:08:30.311Z,104.00
2019-04-28T07:09:30.361Z,104.00
2019-04-28T07:10:30.253Z,108.00
2019-04-28T07:11:42.102Z,108.00
2019-04-28T07:12:30.228Z,112.00
2019-04-28T07:13:30.220Z,116.00
2019-04-28T07:14:30.226Z,116.00
2019-04-28T07:15:30.199Z,112.00
2019-04-28T07:16:30.183Z,116.00
2019-04-28T07:17:30.174Z,116.00
2019-04-28T07:18:30.163Z,112.00
2019-04-28T07:19:30.154Z,116.00
2019-04-28T07:20:30.177Z,116.00
2019-04-28T07:21:30.129Z,116.00
2019-04-28T07:22:30.122Z,116.00
2019-04-28T07:23:30.109Z,116.00
2019-04-28T07:24:30.102Z,112.00
2019-04-28T07:25:30.096Z,112.00
2019-04-28T07:26:30.115Z,112.00
2019-04-28T07:27:30.067Z,112.00
2019-04-28T07:28:30.053Z,108.00
2019-04-28T07:29:30.055Z,112.00
2019-04-28T07:30:30.045Z,112.00
2019-04-28T07:31:30.026Z,108.00
2019-04-28T07:32:30.053Z,108.00
2019-04-28T07:33:35.776Z,108.00
2019-04-28T07:34:30.989Z,108.00
2019-04-28T07:35:29.981Z,108.00
2019-04-28T07:36:29.971Z,104.00
2019-04-28T07:37:29.964Z,104.00
2019-04-28T07:38:29.988Z,104.00
2019-04-28T07:39:29.937Z,104.00
2019-04-28T07:40:29.925Z,104.00
2019-04-28T07:41:29.915Z,108.00
2019-04-28T07:42:40.806Z,104.00
2019-04-28T07:43:29.893Z,104.00
2019-04-28T07:44:29.894Z,108.00
2019-04-28T07:45:29.872Z,112.00
2019-04-28T07:46:29.866Z,112.00
2019-04-28T07:47:29.852Z,116.00
2019-04-28T07:48:29.847Z,116.00
2019-04-28T07:49:29.868Z,124.00
2019-04-28T07:50:29.827Z,120.00
2019-04-28T07:51:29.807Z,116.00
2019-04-28T07:52:29.796Z,116.00
2019-04-28T07:53:29.786Z,112.00
2019-04-28T07:54:29.776Z,112.00
2019-04-28T07:55:29.790Z,116.00
2019-04-28T07:56:29.758Z,116.00
2019-04-28T07:57:29.748Z,112.00
2019-04-28T07:58:29.733Z,116.00
2019-04-28T07:59:29.728Z,116.00
2019-04-28T08:00:29.718Z,120.00
2019-04-28T08:01:29.740Z,120.00
2019-04-28T08:02:29.694Z,120.00
2019-04-28T08:03:29.682Z,124.00
2019-04-28T08:04:29.668Z,128.00
2019-04-28T08:05:29.661Z,132.00
2019-04-28T08:06:29.647Z,152.00
2019-04-28T08:07:29.654Z,156.00
2019-04-28T08:08:29.625Z,148.00
2019-04-28T08:09:29.620Z,140.00
2019-04-28T08:10:29.604Z,132.00
2019-04-28T08:11:29.594Z,136.00
2019-04-28T08:12:29.627Z,144.00
2019-04-28T08:13:40.177Z,148.00
2019-04-28T08:14:29.561Z,148.00
2019-04-28T08:15:29.558Z,148.00
2019-04-28T08:16:29.548Z,152.00
2019-04-28T08:17:29.536Z,152.00
2019-04-28T08:18:31.639Z,156.00
2019-04-28T08:19:29.508Z,168.00
2019-04-28T08:20:29.500Z,172.00
2019-04-28T08:21:29.492Z,184.00
2019-04-28T08:22:29.477Z,268.00
2019-04-28T08:23:29.463Z,348.00
2019-04-28T08:24:29.496Z,280.00
2019-04-28T08:25:29.442Z,376.00
2019-04-28T08:26:29.437Z,504.00
2019-04-28T08:27:29.421Z,512.00
2019-04-28T08:28:29.416Z,508.00
2019-04-28T08:29:29.400Z,480.00
2019-04-28T08:30:29.400Z,456.00
2019-04-28T08:31:29.386Z,436.00
2019-04-28T08:32:29.369Z,396.00
2019-04-28T08:33:29.469Z,352.00
2019-04-28T08:34:29.357Z,296.00
2019-04-28T08:35:29.352Z,288.00
2019-04-28T08:36:29.340Z,212.00
2019-04-28T08:37:29.321Z,196.00
2019-04-28T08:38:29.307Z,196.00
2019-04-28T08:39:29.296Z,200.00
2019-04-28T08:40:29.289Z,208.00
2019-04-28T08:41:29.319Z,220.00
2019-04-28T08:42:29.264Z,252.00
2019-04-28T08:43:29.256Z,264.00
2019-04-28T08:44:39.813Z,268.00
2019-04-28T08:45:29.235Z,284.00
2019-04-28T08:46:29.224Z,296.00
2019-04-28T08:47:29.252Z,304.00
2019-04-28T08:48:29.200Z,300.00
2019-04-28T08:49:29.193Z,320.00
2019-04-28T08:50:29.185Z,280.00
2019-04-28T08:51:29.178Z,276.00
2019-04-28T08:52:29.157Z,284.00
2019-04-28T08:53:29.160Z,292.00
2019-04-28T08:54:29.139Z,288.00
2019-04-28T08:55:29.128Z,300.00
2019-04-28T08:56:29.117Z,304.00
2019-04-28T08:57:29.104Z,316.00
2019-04-28T08:58:29.133Z,324.00
2019-04-28T08:59:29.086Z,316.00
2019-04-28T09:00:29.096Z,280.00
2019-04-28T09:01:29.067Z,276.00
2019-04-28T09:02:29.049Z,296.00
2019-04-28T09:03:29.039Z,312.00
2019-04-28T09:04:29.064Z,312.00
2019-04-28T09:05:29.026Z,296.00
2019-04-28T09:06:29.012Z,304.00
2019-04-28T09:07:28.994Z,300.00
2019-04-28T09:08:28.987Z,312.00
2019-04-28T09:09:28.979Z,316.00
2019-04-28T09:10:28.989Z,324.00
2019-04-28T09:11:28.956Z,312.00
2019-04-28T09:12:28.951Z,308.00
2019-04-28T09:13:28.933Z,308.00
2019-04-28T09:14:28.927Z,296.00
2019-04-28T09:15:39.798Z,304.00
2019-04-28T09:16:28.901Z,312.00
2019-04-28T09:17:28.900Z,324.00
2019-04-28T09:18:28.881Z,344.00
2019-04-28T09:19:28.878Z,376.00
2019-04-28T09:20:28.857Z,412.00
2019-04-28T09:21:28.867Z,424.00
2019-04-28T09:22:28.835Z,436.00
2019-04-28T09:23:28.827Z,468.00
2019-04-28T09:24:28.815Z,524.00
2019-04-28T09:25:28.811Z,576.00
2019-04-28T09:26:28.797Z,640.00
2019-04-28T09:27:28.798Z,656.00
2019-04-28T09:28:28.779Z,696.00
2019-04-28T09:29:28.765Z,724.00
2019-04-28T09:30:28.757Z,700.00
2019-04-28T09:31:28.740Z,660.00
2019-04-28T09:32:28.766Z,656.00
2019-04-28T09:33:28.720Z,580.00
2019-04-28T09:34:28.830Z,548.00
2019-04-28T09:35:28.697Z,512.00
2019-04-28T09:36:28.688Z,504.00
2019-04-28T09:37:28.677Z,484.00
2019-04-28T09:38:28.705Z,520.00
2019-04-28T09:39:28.659Z,544.00
2019-04-28T09:40:28.643Z,580.00
2019-04-28T09:41:28.636Z,540.00
2019-04-28T09:42:28.624Z,548.00
2019-04-28T09:43:28.614Z,560.00
2019-04-28T09:44:28.619Z,568.00
2019-04-28T09:45:28.589Z,564.00
2019-04-28T09:46:38.527Z,544.00
2019-04-28T09:47:28.572Z,496.00
2019-04-28T09:48:28.564Z,488.00
2019-04-28T09:49:28.554Z,468.00
2019-04-28T09:50:28.553Z,472.00
2019-04-28T09:51:28.528Z,484.00
2019-04-28T09:52:28.517Z,508.00
2019-04-28T09:53:28.510Z,528.00
2019-04-28T09:54:28.494Z,536.00
2019-04-28T09:55:28.504Z,536.00
2019-04-28T09:56:28.482Z,544.00
2019-04-28T09:57:28.470Z,564.00
2019-04-28T09:58:28.456Z,552.00
2019-04-28T09:59:28.440Z,540.00
2019-04-28T10:00:28.437Z,556.00
2019-04-28T10:01:28.465Z,604.00
2019-04-28T10:02:28.415Z,600.00
2019-04-28T10:03:28.401Z,648.00
2019-04-28T10:04:40.712Z,632.00
2019-04-28T10:05:29.403Z,612.00
2019-04-28T10:06:28.371Z,616.00
2019-04-28T10:07:28.368Z,628.00
2019-04-28T10:08:28.347Z,620.00
2019-04-28T10:09:28.344Z,584.00
2019-04-28T10:10:28.332Z,548.00
2019-04-28T10:11:30.682Z,556.00
2019-04-28T10:12:28.306Z,564.00
2019-04-28T10:13:28.299Z,572.00
2019-04-28T10:14:28.287Z,584.00
2019-04-28T10:15:28.271Z,580.00
2019-04-28T10:16:28.263Z,552.00
2019-04-28T10:17:39.346Z,536.00
2019-04-28T10:18:28.249Z,552.00
2019-04-28T10:19:28.232Z,596.00
2019-04-28T10:20:28.221Z,656.00
2019-04-28T10:21:28.210Z,684.00
2019-04-28T10:22:28.206Z,728.00
2019-04-28T10:23:28.233Z,640.00
2019-04-28T10:24:28.177Z,660.00
2019-04-28T10:25:28.170Z,604.00
2019-04-28T10:26:28.156Z,540.00
2019-04-28T10:27:28.149Z,544.00
2019-04-28T10:28:28.136Z,568.00
2019-04-28T10:29:28.197Z,600.00
2019-04-28T10:30:28.111Z,656.00
2019-04-28T10:31:28.101Z,648.00
2019-04-28T10:32:28.098Z,636.00
2019-04-28T10:33:28.085Z,620.00
2019-04-28T10:34:28.069Z,564.00
2019-04-28T10:35:28.072Z,532.00
2019-04-28T10:36:28.050Z,544.00
2019-04-28T10:37:28.037Z,524.00
2019-04-28T10:38:28.034Z,528.00
2019-04-28T10:39:28.026Z,520.00
2019-04-28T10:40:28.042Z,512.00
2019-04-28T10:41:27.994Z,476.00
2019-04-28T10:42:27.984Z,448.00
2019-04-28T10:43:27.978Z,444.00
2019-04-28T10:44:27.969Z,452.00
2019-04-28T10:45:27.951Z,444.00
2019-04-28T10:46:27.991Z,432.00
2019-04-28T10:47:27.934Z,424.00
2019-04-28T10:48:37.968Z,428.00
2019-04-28T10:49:27.916Z,424.00
2019-04-28T10:50:27.905Z,416.00
2019-04-28T10:51:27.892Z,428.00
2019-04-28T10:52:27.928Z,424.00
2019-04-28T10:53:27.868Z,416.00
2019-04-28T10:54:27.861Z,416.00
2019-04-28T10:55:27.853Z,412.00
2019-04-28T10:56:27.838Z,412.00
2019-04-28T10:57:27.829Z,416.00
2019-04-28T10:58:27.864Z,412.00
2019-04-28T10:59:27.802Z,420.00
2019-04-28T11:00:27.794Z,408.00
2019-04-28T11:01:27.786Z,416.00
2019-04-28T11:02:27.778Z,404.00
2019-04-28T11:03:27.761Z,408.00
2019-04-28T11:04:27.787Z,416.00
2019-04-28T11:05:27.767Z,416.00
2019-04-28T11:06:27.728Z,416.00
2019-04-28T11:07:27.775Z,420.00
2019-04-28T11:08:27.710Z,416.00
2019-04-28T11:09:30.686Z,420.00
2019-04-28T11:10:27.893Z,432.00
2019-04-28T11:11:27.683Z,432.00
2019-04-28T11:12:27.683Z,440.00
2019-04-28T11:13:27.657Z,436.00
2019-04-28T11:14:27.662Z,444.00
2019-04-28T11:15:27.647Z,448.00
2019-04-28T11:16:27.619Z,460.00
2019-04-28T11:17:27.612Z,468.00
2019-04-28T11:18:27.601Z,476.00
2019-04-28T11:19:37.392Z,460.00
2019-04-28T11:20:27.588Z,500.00
2019-04-28T11:21:27.580Z,516.00
2019-04-28T11:22:27.555Z,540.00
2019-04-28T11:23:27.547Z,560.00
2019-04-28T11:24:27.536Z,560.00
2019-04-28T11:25:27.527Z,540.00
2019-04-28T11:26:27.549Z,552.00
2019-04-28T11:27:27.508Z,552.00
2019-04-28T11:28:27.496Z,564.00
2019-04-28T11:29:27.480Z,572.00
2019-04-28T11:30:27.477Z,584.00
2019-04-28T11:31:27.465Z,592.00
2019-04-28T11:32:27.471Z,608.00
2019-04-28T11:33:27.443Z,624.00
2019-04-28T11:34:27.428Z,664.00
2019-04-28T11:35:27.472Z,696.00
2019-04-28T11:36:27.411Z,724.00
2019-04-28T11:37:27.397Z,776.00
2019-04-28T11:38:27.432Z,800.00
2019-04-28T11:39:27.380Z,836.00
2019-04-28T11:40:27.363Z,852.00
2019-04-28T11:41:27.354Z,868.00
2019-04-28T11:42:27.342Z,900.00
2019-04-28T11:43:27.334Z,884.00
2019-04-28T11:44:27.364Z,912.00
2019-04-28T11:45:27.315Z,964.00
2019-04-28T11:46:27.306Z,1016.00
2019-04-28T11:47:27.291Z,1044.00
2019-04-28T11:48:27.280Z,1076.00
2019-04-28T11:49:27.277Z,1096.00
2019-04-28T11:50:37.500Z,1096.00
2019-04-28T11:51:27.245Z,1100.00
2019-04-28T11:52:27.241Z,1140.00
2019-04-28T11:53:27.226Z,1156.00
2019-04-28T11:54:27.212Z,1160.00
2019-04-28T11:55:27.203Z,1156.00
2019-04-28T11:56:27.202Z,1164.00
2019-04-28T11:57:27.189Z,1164.00
2019-04-28T11:58:27.172Z,1184.00
2019-04-28T11:59:27.165Z,1160.00
2019-04-28T12:00:27.153Z,1172.00
2019-04-28T12:01:27.160Z,1156.00
2019-04-28T12:02:27.137Z,1172.00
2019-04-28T12:03:27.127Z,1180.00
2019-04-28T12:04:27.117Z,1204.00
2019-04-28T12:05:34.338Z,1216.00
2019-04-28T12:06:28.157Z,1240.00
2019-04-28T12:07:27.096Z,1252.00
2019-04-28T12:08:27.069Z,1292.00
2019-04-28T12:09:27.058Z,1300.00
2019-04-28T12:10:27.044Z,1300.00
2019-04-28T12:11:27.041Z,1292.00
2019-04-28T12:12:27.023Z,1284.00
2019-04-28T12:13:27.035Z,1280.00
2019-04-28T12:14:27.002Z,1288.00
2019-04-28T12:15:26.997Z,1292.00
2019-04-28T12:16:26.990Z,1348.00
2019-04-28T12:17:26.969Z,1360.00
2019-04-28T12:18:26.961Z,1372.00
2019-04-28T12:19:26.958Z,1376.00
2019-04-28T12:20:26.938Z,1372.00
2019-04-28T12:21:38.005Z,1368.00
2019-04-28T12:22:26.917Z,1336.00
2019-04-28T12:23:26.944Z,1340.00
2019-04-28T12:24:26.894Z,1296.00
2019-04-28T12:25:26.890Z,1268.00
2019-04-28T12:26:26.880Z,1136.00
2019-04-28T12:27:26.871Z,1040.00
2019-04-28T12:28:26.858Z,1076.00
2019-04-28T12:29:26.939Z,884.00
2019-04-28T12:30:26.838Z,896.00
2019-04-28T12:31:26.820Z,892.00
2019-04-28T12:32:26.813Z,912.00
2019-04-28T12:33:26.808Z,952.00
2019-04-28T12:34:26.797Z,972.00
2019-04-28T12:35:26.818Z,956.00
2019-04-28T12:36:26.773Z,892.00
2019-04-28T12:37:26.760Z,852.00
2019-04-28T12:38:26.748Z,836.00
2019-04-28T12:39:26.744Z,844.00
2019-04-28T12:40:26.731Z,892.00
2019-04-28T12:41:26.881Z,876.00
2019-04-28T12:42:26.712Z,872.00
2019-04-28T12:43:26.702Z,924.00
2019-04-28T12:44:26.686Z,884.00
2019-04-28T12:45:34.821Z,968.00
2019-04-28T12:46:27.671Z,1080.00